Bargerville, Illinois
Current Conditions -  °F | °C
As of 4:35 PM on Tuesday 21 Oct 2014 (Local Time) from KM30 Reporting Station
Clear Clear  
Wind Chill: 21°   Ceiling: Unl
Heat Index: 21°   Visibility: 10mi
Dew Point:   Wind: 9mph
Humidity: 41%   Direction: 10°N
Pressure: 30.06"   Gusts: NA
Location:  37.2288°N, 88.7044°W
Report Text: KM30 212135Z AUTO 01008KT 10SM CLR 21/07 A3006 RMK AO2 T02060070
Loading
Personal Weather Stations






























Interactive Weather Map
Tropical Storm Tracking
New forecast layout! Learn more

10-Day Weather Forecast

Advertisements
Track Severe Weather on mobile